Date,TemperatureHighF,TemperatureAvgF,TemperatureLowF,DewpointHighF,DewpointAvgF,DewpointLowF,HumidityHigh,HumidityAvg,HumidityLow,PressureMaxIn,PressureMinIn,WindSpeedMaxMPH,WindSpeedAvgMPH,GustSpeedMaxMPH,PrecipitationSumIn
2013-1-11,43.3,39.9,41.0,41.1,32.4,-99.9,96,88,90,29.80,29.78,6,-53,0,0.13
2013-1-12,57.2,47.2,38.3,49.9,44.7,38.0,99,92,76,29.85,29.79,8,1,0,0.00
2013-1-13,69.8,55.8,45.5,57.4,51.2,44.6,97,86,64,29.83,29.59,10,4,0,0.00
2013-1-14,52.2,36.9,29.7,50.2,29.7,20.4,99,75,63,30.24,29.59,16,6,0,0.01
2013-1-15,35.6,29.8,27.3,23.7,21.7,18.9,84,72,55,30.25,30.05,10,2,0,0.00
2013-1-16,37.2,32.5,28.9,30.0,25.3,22.8,80,74,65,30.04,29.64,9,3,0,0.00
2013-1-17,37.0,26.2,18.1,30.2,18.3,10.4,89,72,59,30.04,29.68,14,5,0,0.00
2013-1-18,30.9,21.4,12.2,16.9,12.4,6.9,97,69,48,30.26,29.87,11,3,0,0.00
2013-1-19,47.8,41.9,31.3,30.1,25.0,17.4,60,51,41,29.88,29.44,13,3,0,0.00
2013-1-20,49.1,31.7,19.6,36.7,19.0,9.3,93,60,44,29.92,29.28,30,10,0,0.01
2013-1-21,23.5,19.9,14.7,12.3,9.0,6.1,72,62,56,29.92,29.71,11,4,0,0.00
2013-1-22,14.7,11.3,7.5,5.6,0.5,-5.3,85,62,44,30.03,29.74,19,7,0,0.00
2013-1-23,17.1,8.5,2.1,10.5,4.5,-1.1,87,83,70,30.10,29.96,11,3,0,0.00
2013-1-24,15.1,9.2,-1.5,10.5,4.9,-24.0,91,83,18,30.35,29.96,11,3,0,0.00
2013-1-25,19.9,13.2,4.6,12.0,8.8,3.1,93,83,64,30.34,29.93,7,2,0,0.00
2013-1-26,26.6,15.2,1.0,19.2,10.9,-0.8,95,84,54,30.22,29.94,8,2,0,0.00
2013-1-27,30.7,22.8,17.2,18.8,15.8,12.7,89,75,57,30.40,30.22,6,2,0,0.00
2013-1-28,38.3,31.6,22.3,38.0,28.7,16.5,99,90,71,30.20,29.68,8,3,0,0.51
2013-1-29,51.8,39.1,31.6,51.5,38.8,31.4,99,99,94,29.90,29.58,5,2,0,0.35
2013-1-30,63.9,55.9,48.9,56.2,50.7,47.0,99,83,66,29.57,28.90,11,4,0,0.02
2013-1-31,54.5,32.2,23.2,52.6,22.6,9.5,98,68,45,29.51,28.84,23,9,0,0.15
2013-2-1,23.5,20.5,18.3,18.6,13.6,8.2,96,75,57,30.01,29.52,19,8,0,0.00
2013-2-2,23.5,18.2,9.0,14.4,10.3,6.8,94,71,58,30.02,29.81,7,2,0,0.00
2013-2-3,27.5,18.5,8.1,17.2,13.1,6.3,98,81,57,29.81,29.61,12,2,0,0.00
2013-2-4,23.4,19.6,14.9,16.2,11.9,8.4,92,72,53,29.78,29.67,13,4,0,0.00
2013-2-5,29.1,21.4,15.6,18.2,14.8,10.4,92,77,55,29.81,29.68,9,2,0,0.00
2013-2-6,28.2,23.2,14.9,24.6,15.4,7.5,92,72,50,30.23,29.70,18,5,0,0.00
2013-2-7,30.9,23.2,10.9,23.1,13.8,9.2,94,68,52,30.29,29.94,11,4,0,0.00
2013-2-8,33.4,28.7,18.9,32.2,24.8,17.4,99,86,61,29.94,29.62,7,2,0,0.00
2013-2-9,22.1,17.1,6.6,18.4,14.6,5.3,98,90,79,30.25,29.92,0,0,0,0.00
2013-2-10,34.7,21.1,1.9,24.7,14.8,0.2,96,78,62,30.25,29.80,10,3,0,0.00
2013-2-11,52.5,39.1,33.6,40.9,30.7,24.7,87,72,62,29.80,29.38,21,7,0,0.15
2013-2-12,36.5,33.7,31.6,30.7,26.7,23.2,90,75,61,29.79,29.52,20,8,0,0.00
2013-2-13,40.3,30.1,16.9,25.9,23.2,16.4,98,76,51,29.75,29.57,4,1,0,0.00
2013-2-14,41.2,33.5,17.1,34.8,28.3,16.6,99,83,56,29.76,29.61,7,2,0,0.13
2013-2-15,38.8,34.6,25.0,35.3,24.5,16.1,99,67,50,29.89,29.61,17,6,0,0.00
2013-2-16,29.1,24.0,18.3,21.2,17.2,14.3,87,75,65,29.89,29.77,7,2,0,0.01
2013-2-17,22.1,16.7,13.1,19.7,11.3,6.5,94,79,67,30.00,29.74,20,7,0,0.00
2013-2-18,30.7,22.1,12.7,16.5,11.9,6.3,89,66,48,30.12,29.77,12,4,0,0.00
2013-2-19,45.9,34.5,26.8,35.4,24.6,16.6,90,68,53,29.76,29.37,19,7,0,0.12
2013-2-20,26.8,23.1,19.8,18.5,14.7,11.8,83,70,58,29.87,29.58,23,9,0,0.00
2013-2-21,21.9,18.2,13.6,17.8,13.3,8.4,89,81,76,30.25,29.85,17,7,0,0.00
2013-2-22,34.9,27.1,15.6,28.4,21.6,13.7,94,80,63,30.23,29.85,10,4,0,0.00
2013-2-23,42.4,35.2,32.0,33.4,29.2,24.0,91,79,69,29.85,29.70,7,3,0,0.08
2013-2-24,35.4,32.0,30.7,28.6,25.4,22.6,87,77,67,29.88,29.68,10,4,0,0.00
2013-2-25,38.3,33.4,26.6,28.9,27.6,24.6,92,80,64,30.08,29.89,11,3,0,0.00
2013-2-26,44.6,35.4,20.8,32.0,26.9,20.3,99,73,51,30.08,29.71,13,4,0,0.02
2013-2-27,33.1,32.6,32.2,32.5,32.2,31.9,99,98,97,29.69,29.40,6,2,0,0.13
2013-2-28,38.8,34.8,32.2,34.4,32.8,31.6,99,93,76,29.55,29.37,11,2,0,0.92
2013-3-1,34.2,31.1,28.2,32.9,26.2,21.9,95,82,75,29.76,29.55,10,4,0,0.01
2013-3-2,28.0,25.6,24.3,22.7,20.7,17.3,89,82,71,29.78,29.70,13,5,0,0.00
2013-3-3,25.7,23.6,21.7,22.3,18.5,16.1,95,81,67,29.72,29.68,11,5,0,0.00
2013-3-4,31.6,26.7,22.6,22.4,19.5,16.8,84,74,62,29.87,29.71,19,8,0,0.00
2013-3-5,34.3,27.7,20.5,24.9,21.8,19.5,98,79,64,29.93,29.82,8,2,0,0.00
2013-3-6,39.6,32.9,19.2,33.4,28.5,18.0,97,84,74,29.98,29.80,9,3,0,0.04
2013-3-7,37.2,34.5,32.2,33.1,29.3,23.2,97,81,64,30.12,29.97,6,3,0,0.00
2013-3-8,39.7,33.4,24.6,27.3,24.2,21.9,95,70,51,30.23,30.10,8,3,0,0.00
2013-3-9,44.8,33.4,20.1,33.2,26.6,19.4,99,77,57,30.25,30.08,7,2,0,0.00
2013-3-10,63.1,49.5,34.2,33.0,28.1,25.1,69,45,29,30.07,29.81,12,4,0,0.00
2013-3-11,55.2,52.1,46.9,42.7,32.3,28.8,63,47,41,29.82,29.51,14,6,0,0.00
2013-3-12,55.0,41.5,35.6,46.4,34.3,27.5,96,76,63,29.74,29.51,12,5,0,0.20
2013-3-13,40.6,33.3,23.7,30.0,25.3,18.5,91,73,53,29.76,29.65,13,6,0,0.00
2013-3-14,29.8,25.8,20.3,18.5,14.0,9.6,89,62,42,29.88,29.76,15,8,0,0.00
2013-3-15,39.6,32.0,24.3,31.7,22.9,13.8,93,69,53,29.87,29.52,15,6,0,0.01
2013-3-16,30.6,25.0,14.7,20.3,16.5,12.1,90,70,60,29.82,29.69,10,3,0,0.00
2013-3-17,30.6,24.8,14.5,22.1,14.9,8.9,94,67,44,30.19,29.81,11,4,0,0.00
2013-3-18,35.2,25.2,11.7,28.8,16.8,8.6,94,73,40,30.18,29.59,19,6,0,0.00
2013-3-19,39.0,32.8,26.1,32.9,26.3,18.6,94,77,56,29.66,29.51,17,5,0,0.15
2013-3-20,35.1,28.3,23.9,24.7,19.4,15.2,83,70,47,29.66,29.61,13,5,0,0.00
2013-3-21,33.6,26.6,20.3,26.2,17.6,12.2,94,69,46,29.65,29.53,11,4,0,0.00
2013-3-22,33.6,29.5,25.3,26.1,24.2,20.9,95,81,67,29.74,29.55,11,6,0,0.00
2013-3-23,38.8,33.6,29.3,27.3,25.3,22.8,92,72,58,29.83,29.72,14,6,0,0.07
2013-3-24,38.5,33.3,24.4,26.7,24.1,20.7,94,70,52,29.83,29.59,8,3,0,0.00
2013-3-25,39.9,35.2,30.0,30.6,26.4,23.5,95,70,58,29.58,29.45,12,3,0,0.00
2013-3-26,32.9,29.8,27.1,30.1,27.7,25.4,95,92,84,29.57,29.55,4,0,0,0.00
2013-3-27,34.0,34.0,34.0,33.2,33.0,32.4,97,96,94,29.88,29.87,4,3,0,0.00
2013-3-28,35.4,34.1,33.8,33.1,32.2,31.9,94,93,91,29.93,29.87,11,4,0,0.00
2013-3-31,44.8,42.7,39.7,41.6,40.1,38.1,94,90,88,29.51,29.46,5,2,0,0.01
2013-4-1,44.4,36.3,26.8,40.2,26.4,15.0,96,69,40,29.78,29.39,17,7,0,0.04
2013-4-2,36.3,29.6,24.1,26.1,19.0,14.8,83,65,42,29.93,29.77,15,7,0,0.00
2013-4-3,38.3,31.5,27.1,24.1,18.0,14.6,76,58,40,30.20,29.93,17,8,0,0.00
2013-4-4,57.4,37.1,23.4,24.9,20.1,16.1,76,53,24,30.19,29.74,10,2,0,0.00
2013-4-5,43.0,37.6,32.0,30.5,24.5,15.3,71,59,38,29.99,29.71,16,7,0,0.00
2013-4-6,43.9,35.9,26.1,23.3,19.0,14.1,66,50,38,30.17,29.89,13,4,0,0.00
2013-4-7,73.2,54.0,42.8,46.2,32.3,20.3,69,45,34,29.88,29.52,17,7,0,0.00
2013-4-8,52.7,44.3,39.6,43.3,34.7,31.9,94,70,53,29.97,29.57,8,3,0,0.06
2013-4-9,56.8,47.4,41.9,49.7,42.3,39.2,98,83,70,29.96,29.56,15,5,0,0.65
2013-4-10,43.7,41.1,38.5,43.4,40.4,38.0,99,97,89,29.94,29.74,14,2,0,0.75
2013-4-11,38.1,35.3,33.1,37.6,32.7,29.8,98,90,82,29.90,29.80,9,3,0,0.01
2013-4-12,52.5,41.0,34.2,46.0,36.9,30.8,98,86,64,29.80,29.37,19,5,0,0.87
2013-4-13,47.8,43.0,39.9,36.8,33.1,30.0,78,68,52,29.76,29.60,14,5,0,0.00
2013-4-14,45.1,38.9,30.0,33.5,28.9,26.0,88,68,48,30.04,29.76,11,4,0,0.02
2013-4-15,77.0,55.2,30.0,48.1,37.9,24.2,86,54,35,30.03,29.83,13,5,0,0.00
2013-4-16,66.6,56.1,43.3,56.9,47.3,32.8,98,74,58,30.08,29.80,13,4,0,0.15
2013-4-17,54.0,43.9,31.8,36.0,32.7,29.2,95,66,44,30.22,30.08,8,2,0,0.00
2013-4-18,79.9,62.3,40.6,56.6,47.2,30.7,70,59,43,30.09,29.55,14,5,0,0.00
2013-4-19,74.5,59.5,41.9,58.3,47.7,30.0,84,65,55,29.60,29.20,20,8,0,0.12
2013-4-20,45.1,39.2,34.0,33.1,25.7,20.0,88,59,48,30.24,29.57,14,7,0,0.02
2013-4-21,42.1,35.4,29.8,25.0,20.9,11.5,67,56,30,30.53,30.25,7,3,0,0.00
2013-4-22,60.6,46.6,29.1,30.8,25.6,19.6,70,46,29,30.46,30.19,13,5,0,0.00
2013-4-23,63.5,52.1,39.6,38.4,33.2,27.6,67,49,38,30.19,29.79,11,5,0,0.00
2013-4-24,52.9,51.6,50.7,35.5,34.6,34.2,55,52,49,29.79,29.72,8,5,0,0.00
2013-4-25,48.2,43.6,40.5,39.8,34.3,29.6,94,72,50,30.14,30.02,8,2,0,0.19
2013-4-26,51.6,42.9,34.3,39.9,33.1,28.9,97,71,42,30.32,30.15,8,2,0,0.00
2013-4-27,64.2,50.1,31.8,37.9,33.9,28.7,92,58,35,30.28,30.07,7,2,0,0.00
2013-4-28,76.8,61.1,43.7,48.7,39.8,34.6,82,48,25,30.07,29.87,11,4,0,0.04
2013-4-29,67.1,58.4,50.5,51.5,48.3,45.3,87,70,54,29.90,29.83,10,5,0,0.08
2013-4-30,74.3,63.9,55.4,55.0,51.8,48.9,89,66,47,30.06,29.89,11,5,0,0.02
2013-5-1,80.4,66.5,54.0,50.3,44.4,36.4,71,49,23,30.18,30.06,9,4,0,0.00
2013-5-2,72.9,61.9,48.7,44.0,39.9,36.3,69,46,31,30.25,30.10,8,2,0,0.00
2013-5-3,78.3,63.8,47.1,50.9,43.9,38.4,83,51,32,30.14,30.05,7,2,0,0.00
2013-5-4,73.2,61.5,48.2,47.7,42.1,37.5,74,50,33,30.13,29.99,8,2,0,0.00
2013-5-5,71.4,59.0,42.8,48.3,43.6,38.5,93,60,38,30.04,29.93,7,2,0,0.00
2013-5-6,69.4,58.6,43.9,45.8,40.5,35.4,89,53,34,30.01,29.86,9,2,0,0.00
2013-5-7,72.5,61.9,48.4,55.4,49.5,39.2,93,66,49,29.97,29.86,6,2,0,0.00
2013-5-8,72.1,61.7,51.6,59.6,54.3,47.0,95,78,56,29.90,29.76,9,2,0,0.04
2013-5-9,66.0,58.1,53.6,58.3,55.0,52.4,99,90,74,29.79,29.70,8,1,0,0.17
2013-5-10,75.9,61.2,48.9,62.3,55.9,48.7,99,84,57,29.79,29.56,8,2,0,0.41
2013-5-11,60.3,54.4,47.8,58.7,49.9,43.0,98,85,62,29.61,29.48,10,3,0,0.11
2013-5-12,53.6,45.3,39.6,45.3,35.6,30.2,94,70,45,29.74,29.51,16,6,0,0.01
2013-5-13,55.2,43.3,37.4,33.9,31.2,28.2,76,63,42,29.96,29.75,14,6,0,0.00
2013-5-14,57.2,45.0,29.7,38.0,33.3,27.5,97,66,44,30.00,29.81,6,2,0,0.00
2013-5-15,81.5,59.9,46.6,60.5,44.3,30.4,85,58,42,29.80,29.34,15,5,0,0.09
2013-5-16,62.8,55.6,48.4,43.9,41.8,40.5,74,60,45,29.84,29.55,8,3,0,0.00
2013-5-17,66.2,52.1,37.2,46.4,41.3,36.4,98,70,42,30.07,29.85,6,1,0,0.00
2013-5-18,67.8,55.7,39.0,49.4,42.8,37.9,99,66,43,30.11,29.99,9,2,0,0.00
2013-5-19,81.1,68.3,58.3,62.7,56.0,48.7,78,66,52,29.99,29.82,11,4,0,0.00
2013-5-20,80.4,70.6,61.2,65.2,60.5,54.9,83,71,58,29.88,29.70,7,2,0,0.00
2013-5-21,82.0,68.6,56.3,68.3,61.4,55.1,96,79,62,29.76,29.59,8,2,0,0.09
2013-5-22,84.7,70.3,56.1,70.6,64.3,55.0,99,83,58,29.63,29.47,8,2,0,0.32
2013-5-23,77.0,65.5,45.7,65.0,58.4,44.1,96,79,52,29.73,29.53,12,3,0,0.07
2013-5-24,52.3,43.9,39.0,43.3,38.8,36.8,97,83,58,30.03,29.73,15,4,0,0.19
2013-5-25,59.4,50.2,42.4,40.6,37.9,35.8,78,64,45,30.06,29.97,13,5,0,0.00
2013-5-26,63.5,53.8,46.8,40.8,38.2,35.7,76,57,40,30.05,29.95,12,6,0,0.00
2013-5-27,68.5,54.7,40.1,45.5,39.8,32.8,89,60,27,30.12,29.97,6,2,0,0.00
2013-5-28,63.1,56.8,47.8,58.6,50.0,38.9,96,79,54,30.00,29.77,10,3,0,0.59
2013-5-29,83.3,71.1,59.5,68.4,62.8,58.1,99,78,51,29.84,29.72,11,3,0,0.48
2013-5-30,90.9,76.6,63.1,69.1,63.6,60.0,93,67,37,29.94,29.85,8,2,0,0.00
2013-5-31,92.3,79.5,63.9,69.3,65.3,60.2,93,64,42,29.90,29.76,7,2,0,0.00
2013-6-1,90.0,76.1,66.9,70.3,65.6,61.2,98,72,49,29.81,29.60,12,2,0,0.63
2013-6-2,78.4,70.0,55.9,68.6,62.7,50.4,99,80,52,29.72,29.52,18,5,0,0.67
2013-6-3,63.0,55.9,50.9,49.5,45.0,42.0,81,67,54,29.85,29.72,11,4,0,0.00
2013-6-4,68.0,57.0,48.6,47.5,43.6,38.5,79,62,42,30.01,29.85,9,3,0,0.00
2013-6-5,65.7,57.9,50.9,51.7,45.3,41.3,78,64,45,30.07,29.93,8,2,0,0.00
2013-6-6,58.5,56.2,53.4,56.8,51.6,45.3,96,85,64,29.94,29.78,7,3,0,1.63
2013-6-8,66.2,60.5,55.9,58.8,56.6,53.3,99,87,74,29.90,29.74,8,2,0,0.00
2013-6-9,73.8,63.3,52.3,56.6,53.8,51.2,96,73,52,30.04,29.90,5,1,0,0.00
2013-6-10,71.6,65.3,58.8,63.5,59.0,53.3,94,81,66,29.97,29.55,10,4,0,0.13
2013-6-11,66.9,62.8,56.8,64.3,59.8,53.0,99,90,77,29.67,29.47,10,3,0,0.34
2013-6-12,57.9,57.5,56.8,54.5,54.1,53.0,90,88,87,29.69,29.67,4,2,0,0.00
2013-6-13,60.8,58.5,54.0,59.3,56.1,52.5,96,92,85,29.61,29.37,8,3,0,1.18
2013-6-14,73.2,62.7,50.7,58.8,55.4,50.2,99,79,58,29.80,29.62,10,3,0,0.00
2013-6-15,73.2,64.1,49.6,54.3,50.2,39.6,93,63,30,29.89,29.77,10,2,0,0.00
2013-6-16,75.6,68.5,62.2,65.8,60.2,51.9,94,75,60,29.77,29.53,8,3,0,0.20
2013-6-17,77.7,67.8,57.6,63.3,59.1,55.6,97,75,54,29.77,29.65,8,2,0,0.00
2013-6-18,69.4,60.6,51.1,57.0,51.4,48.8,94,73,53,29.87,29.74,10,3,0,0.00
2013-6-19,68.0,58.3,46.6,51.7,46.1,38.6,96,66,36,30.04,29.87,5,2,0,0.00
2013-6-20,71.2,58.8,42.8,53.6,46.5,39.2,99,68,33,30.11,30.04,5,1,0,0.00
2013-6-21,79.0,64.7,49.5,59.9,52.8,46.4,93,68,45,30.12,30.01,5,1,0,0.00
2013-6-22,86.7,72.0,57.0,74.6,65.1,53.4,98,81,50,30.02,29.84,6,1,0,0.55
2013-6-23,89.4,78.0,68.5,72.2,69.0,64.1,98,76,52,29.90,29.82,7,2,0,0.00
2013-6-24,88.2,80.2,70.7,71.0,66.7,63.2,84,64,50,29.86,29.76,10,3,0,0.00
2013-6-25,84.0,75.9,68.7,73.7,66.4,62.9,91,73,61,29.78,29.62,15,3,0,0.26
2013-6-26,84.4,75.4,67.1,70.7,67.3,63.4,93,77,60,29.66,29.61,10,3,0,0.00
2013-6-27,81.0,72.3,62.8,71.8,66.6,61.6,97,83,67,29.65,29.45,8,1,0,0.00
2013-6-28,67.8,64.6,61.9,66.0,62.6,60.1,97,93,89,29.46,29.35,6,2,0,0.26
2013-6-29,75.2,66.2,61.9,65.4,62.3,60.1,98,88,65,29.53,29.34,5,1,0,0.96
2013-6-30,75.6,67.9,59.0,65.5,63.1,58.4,98,85,68,29.77,29.53,7,1,0,0.00
2013-7-1,67.6,64.9,60.8,63.7,62.0,58.4,97,90,82,29.88,29.76,9,3,0,1.05
2013-7-2,71.2,66.2,61.0,66.0,62.9,58.9,97,89,81,29.95,29.86,7,2,0,0.05
2013-7-3,82.8,71.8,63.5,73.6,68.5,62.6,97,90,74,29.99,29.92,5,1,0,0.39
2013-7-4,88.7,74.6,68.2,73.5,70.3,67.5,99,88,56,30.01,29.94,5,1,0,0.11
2013-7-5,85.8,76.0,68.7,74.2,70.4,67.3,98,84,64,29.98,29.90,5,1,0,0.02
2013-7-6,84.6,76.3,69.6,70.0,67.0,65.1,91,74,59,29.98,29.87,5,2,0,0.00
2013-7-7,84.7,77.1,69.6,73.7,68.4,64.1,97,76,56,29.91,29.77,9,3,0,0.47
2013-7-8,83.3,75.2,69.8,72.4,68.9,64.4,94,81,64,29.89,29.81,5,2,0,0.07
2013-7-9,86.0,75.6,69.6,72.5,69.8,67.2,96,83,61,29.89,29.74,5,0,0,0.01
2013-7-10,88.2,78.2,69.8,73.8,70.0,63.3,97,77,59,29.73,29.54,8,3,0,0.00
2013-7-11,75.9,68.8,63.1,65.5,60.5,57.0,94,75,62,29.86,29.65,14,3,0,0.00
2013-7-12,74.3,67.2,60.1,65.9,62.4,58.8,97,85,68,30.02,29.86,6,1,0,0.00
2013-7-13,82.8,71.9,60.1,70.2,65.7,59.2,98,82,62,30.09,30.00,6,1,0,0.00
2013-7-14,85.8,76.5,66.9,72.4,68.7,65.9,97,78,59,30.14,30.09,6,1,0,0.00
2013-7-15,88.7,77.7,69.6,73.6,69.2,65.8,94,77,49,30.14,30.06,6,1,0,0.00
2013-7-16,89.4,77.8,66.0,70.8,67.3,63.6,93,72,49,30.12,30.04,5,1,0,0.00
2013-7-17,93.2,82.4,69.6,77.7,72.5,66.6,93,74,51,30.07,29.90,7,2,0,0.00
2013-7-18,90.5,82.6,75.6,77.5,73.9,70.1,92,76,55,29.93,29.77,6,1,0,0.16
2013-7-19,93.9,82.8,69.3,75.5,70.8,65.2,92,69,46,29.78,29.55,12,4,0,0.24
2013-7-20,82.6,73.5,66.6,69.8,65.6,59.6,97,78,51,29.72,29.54,9,2,0,0.56
2013-7-21,73.8,68.2,59.7,62.9,58.7,55.4,93,73,57,29.87,29.72,7,2,0,0.00
2013-7-22,79.7,68.7,57.0,65.6,60.8,56.1,97,77,54,29.84,29.63,8,2,0,0.05
2013-7-23,85.8,74.4,67.5,71.3,66.2,57.3,96,77,47,29.62,29.44,10,2,0,0.02
2013-7-24,68.4,62.9,52.5,57.6,52.1,48.9,93,68,55,29.89,29.53,10,4,0,0.00
2013-7-25,72.9,62.1,49.8,57.4,53.1,48.7,96,75,51,29.98,29.89,6,1,0,0.00
2013-7-26,76.3,64.0,51.6,59.7,54.1,48.8,96,73,39,29.97,29.85,6,1,0,0.00
2013-7-27,80.4,69.6,55.9,66.7,61.0,52.7,93,76,54,29.85,29.66,8,2,0,0.11
2013-7-28,72.9,68.0,58.3,66.7,62.5,56.3,95,83,62,29.81,29.64,9,2,0,0.09
2013-7-29,74.7,65.0,54.7,57.6,55.4,53.2,96,73,52,29.96,29.81,9,2,0,0.00
2013-7-30,75.9,66.5,56.8,60.6,57.5,54.3,93,74,55,30.04,29.96,9,2,0,0.00
2013-7-31,79.0,67.7,55.9,65.9,60.2,54.5,96,79,51,30.00,29.77,5,1,0,0.00
2013-8-1,77.7,69.1,62.2,69.3,63.4,59.8,96,83,60,29.77,29.61,9,2,0,0.52
2013-8-2,76.8,66.6,58.5,63.9,60.8,57.6,97,83,57,29.73,29.67,6,1,0,0.26
2013-8-3,77.4,68.3,61.3,61.7,59.6,55.4,97,76,50,29.76,29.65,11,3,0,0.50
2013-8-4,72.3,66.5,60.8,58.8,55.2,51.9,83,68,55,29.88,29.76,12,5,0,0.00
2013-8-5,74.7,64.5,54.0,58.9,55.0,51.7,94,73,53,29.95,29.86,6,1,0,0.00
2013-8-6,81.3,65.9,53.2,60.5,56.6,51.6,95,74,47,29.90,29.83,6,1,0,0.00
2013-8-7,82.2,73.1,64.4,66.4,62.6,58.1,83,70,57,29.83,29.71,11,4,0,0.00
2013-8-8,79.2,72.9,67.1,70.0,67.1,63.0,95,82,71,29.80,29.74,6,1,0,0.06
2013-8-9,79.7,70.8,68.0,69.8,65.9,58.6,97,86,59,29.76,29.69,6,2,0,1.60
2013-8-10,74.3,66.6,54.9,59.6,55.6,51.4,92,69,48,29.93,29.75,8,3,0,0.00
2013-8-11,76.1,63.8,51.8,58.9,55.3,50.7,97,76,50,29.97,29.88,6,1,0,0.00
2013-8-12,77.9,67.5,56.3,66.0,59.7,54.5,95,77,52,29.89,29.70,5,1,0,0.00
2013-8-13,73.0,66.3,60.1,66.9,59.7,48.2,96,81,59,29.70,29.58,11,3,0,0.28
2013-8-14,71.6,61.6,54.7,54.2,50.9,48.3,90,69,50,29.91,29.67,14,5,0,0.00
2013-8-15,74.3,63.2,49.5,56.6,52.1,47.5,94,69,51,29.97,29.90,9,2,0,0.00
2013-8-16,78.4,64.5,51.4,59.4,54.5,49.8,94,73,47,30.04,29.95,4,1,0,0.00
2013-8-17,79.7,66.5,54.9,61.4,57.4,53.7,96,75,46,30.14,30.04,5,1,0,0.00
2013-8-18,79.9,67.2,57.0,64.2,59.2,55.5,95,78,53,30.09,29.95,3,1,0,0.00
2013-8-19,82.2,68.7,58.5,66.6,60.8,57.0,95,78,47,29.95,29.86,5,1,0,0.00
2013-8-20,83.5,71.2,59.7,65.4,61.2,57.7,93,73,48,29.96,29.89,9,1,0,0.00
2013-8-21,87.3,73.3,61.3,69.6,62.7,58.4,91,72,47,30.00,29.85,5,1,0,0.00
2013-8-22,84.6,73.1,63.1,70.8,65.3,59.5,94,77,58,29.86,29.73,7,2,0,0.00
2013-8-23,74.3,65.2,54.7,60.7,57.1,53.2,95,76,54,30.05,29.82,7,2,0,0.00
2013-8-24,75.7,62.8,52.0,57.5,52.3,49.0,97,73,42,30.20,30.05,6,1,0,0.00
2013-8-25,83.8,67.5,50.7,61.9,55.3,49.5,97,69,42,30.19,29.96,5,1,0,0.00
2013-8-26,78.8,70.4,65.5,70.7,65.8,59.7,96,86,69,29.97,29.75,7,2,0,1.61
2013-8-27,79.9,72.2,66.2,71.2,68.6,65.3,97,89,73,29.79,29.72,5,1,0,0.00
2013-8-28,81.7,73.6,67.6,71.7,68.9,66.2,97,86,68,29.79,29.69,6,1,0,0.00
2013-8-29,82.4,71.9,64.4,72.4,67.4,63.4,97,87,68,29.89,29.79,6,1,0,0.00
2013-8-30,93.4,75.1,63.1,70.0,65.8,62.0,97,76,38,29.86,29.60,4,1,0,0.01
2013-8-31,81.0,72.9,66.9,73.3,69.3,65.0,96,89,74,29.70,29.56,6,1,0,0.13
2013-9-1,80.8,72.1,66.0,70.0,67.5,64.8,97,86,69,29.70,29.59,7,2,0,0.54
2013-9-2,89.2,73.3,66.0,74.7,67.4,56.9,97,83,58,29.62,29.50,9,2,0,0.02
2013-9-3,70.2,64.9,61.9,57.9,56.1,54.9,79,73,63,29.77,29.61,12,4,0,0.00
2013-9-4,81.5,68.8,55.8,61.8,55.2,50.5,88,64,39,29.81,29.76,10,4,0,0.00
2013-9-5,72.0,61.9,50.2,58.7,48.3,39.5,82,62,42,30.06,29.80,10,2,0,0.00
2013-9-6,75.4,58.4,44.1,51.9,47.0,40.8,92,69,37,30.12,29.92,7,1,0,0.00
2013-9-7,62.2,56.5,52.7,53.2,49.8,47.9,91,79,66,29.92,29.84,2,0,0,0.00
2013-9-8,70.5,60.9,46.9,49.5,46.7,44.4,92,62,43,29.96,29.85,9,2,0,0.00
2013-9-9,77.9,60.9,44.1,60.5,51.3,42.7,95,74,42,30.00,29.79,6,1,0,0.00
2013-9-10,93.0,79.8,68.0,76.5,69.1,59.7,95,71,53,29.82,29.71,7,3,0,0.29
2013-9-11,96.1,83.7,76.1,74.8,70.7,64.3,84,66,47,29.86,29.72,7,2,0,0.00
2013-9-12,75.6,69.6,62.6,69.3,65.5,58.8,94,87,69,29.76,29.55,7,2,0,0.15
2013-9-13,63.3,56.3,52.3,60.0,51.1,45.2,93,83,75,29.85,29.57,7,3,0,0.22
2013-9-14,63.7,53.2,43.7,47.9,44.1,41.6,93,72,51,29.96,29.84,8,2,0,0.00
2013-9-15,70.2,57.5,44.2,56.2,48.1,42.0,93,72,53,29.99,29.89,11,1,0,0.02
2013-9-16,55.0,51.5,43.7,53.1,47.6,41.2,95,87,67,30.22,29.91,8,2,0,0.19
2013-9-17,66.7,50.8,37.9,46.8,42.4,36.6,96,76,43,30.35,30.15,6,1,0,0.00
2013-9-18,78.8,56.2,41.7,54.1,46.5,40.1,94,74,33,30.15,29.95,5,1,0,0.00
2013-9-19,83.5,62.5,48.9,59.3,53.1,46.5,95,74,44,29.97,29.85,6,1,0,0.00
2013-9-20,84.6,68.9,54.1,65.0,58.9,53.0,96,73,50,29.86,29.61,7,2,0,0.00
2013-9-21,71.6,63.9,54.3,60.8,59.0,52.6,96,85,63,29.60,29.46,11,2,0,1.08
2013-9-22,57.4,53.1,51.3,51.9,44.7,40.1,92,74,57,29.85,29.55,16,4,0,0.02
2013-9-23,59.4,52.0,42.1,45.0,42.0,39.9,94,70,54,29.99,29.85,7,2,0,0.00
2013-9-24,66.4,50.4,39.0,49.5,43.1,37.7,96,79,49,29.98,29.84,8,1,0,0.00
2013-9-25,72.0,53.1,41.5,54.5,45.9,40.2,95,79,47,29.85,29.80,6,1,0,0.00
2013-9-26,72.9,55.0,42.4,58.1,49.0,41.1,96,82,56,29.99,29.84,6,1,0,0.00
2013-9-27,68.5,54.9,45.1,56.3,50.3,43.8,97,85,65,30.11,29.99,7,1,0,0.00
2013-9-28,73.8,58.4,44.1,58.0,50.5,43.0,97,77,55,30.15,30.01,7,2,0,0.00
2013-9-29,79.9,61.2,47.1,57.0,51.4,45.5,95,73,45,30.01,29.83,6,2,0,0.00
2013-9-30,75.7,62.6,51.6,61.3,55.3,48.8,91,78,57,29.85,29.77,4,1,0,0.00
2013-10-1,79.0,65.2,57.2,61.7,58.6,54.5,96,81,55,29.86,29.74,4,1,0,0.00
2013-10-2,76.3,65.8,56.1,64.2,58.7,49.1,95,79,55,29.93,29.74,11,3,0,0.00
2013-10-3,75.9,60.0,46.8,56.4,51.0,45.3,96,75,37,29.98,29.86,4,1,0,0.01
2013-10-4,63.9,60.9,57.7,61.8,58.8,56.3,97,93,84,29.91,29.82,7,1,0,0.48
2013-10-5,63.3,60.5,59.0,59.4,57.4,55.1,95,89,80,29.94,29.88,4,1,0,0.04
2013-10-6,79.2,68.4,59.9,71.8,64.7,57.9,97,88,74,29.87,29.58,12,2,0,0.26
2013-10-7,73.0,61.5,52.0,65.8,55.3,46.3,95,80,67,29.86,29.45,15,5,0,0.46
2013-10-8,65.7,53.4,41.9,49.7,45.1,40.8,96,76,49,30.19,29.87,7,2,0,0.00
2013-10-9,70.3,51.7,38.8,50.3,44.9,38.1,98,80,43,30.25,30.12,6,1,0,0.00
2013-10-10,67.8,51.0,37.9,49.5,43.8,36.9,97,79,43,30.13,30.00,6,1,0,0.00
2013-10-11,71.6,51.5,41.4,54.5,46.7,40.3,97,85,54,30.01,29.96,5,1,0,0.00
2013-10-12,74.8,55.4,40.3,53.0,44.5,36.6,98,73,27,30.04,29.97,7,1,0,0.00
2013-10-13,77.2,63.1,50.5,60.3,54.6,44.6,95,75,52,30.11,30.03,10,3,0,0.09
2013-10-14,62.4,56.4,44.2,59.2,52.6,42.9,96,88,66,30.17,30.08,7,2,0,0.12
2013-10-15,70.9,55.3,40.1,55.9,49.5,39.3,97,83,57,30.13,29.79,8,2,0,0.00
2013-10-16,64.8,61.1,56.8,58.2,54.7,49.3,94,80,63,29.79,29.58,9,2,0,0.21
2013-10-17,68.7,57.4,49.3,53.8,50.0,46.5,96,78,50,29.71,29.50,5,1,0,0.33
2013-10-18,60.8,52.5,43.9,52.1,44.4,37.7,96,76,45,29.74,29.54,10,3,0,0.02
2013-10-19,64.0,54.7,44.8,47.9,43.7,39.5,90,67,49,29.73,29.46,7,2,0,0.02
2013-10-20,58.6,48.6,41.9,43.0,39.5,36.2,88,72,53,29.82,29.57,8,2,0,0.00
2013-10-21,67.3,54.6,43.5,48.3,41.9,39.3,92,64,38,29.82,29.63,7,2,0,0.00
2013-10-22,53.6,47.1,38.1,47.4,36.4,28.0,94,68,42,29.68,29.57,13,4,0,0.14
2013-10-23,49.1,41.4,34.5,37.2,33.1,28.5,83,73,60,29.66,29.53,10,2,0,0.00
2013-10-24,50.7,40.9,34.0,36.7,32.5,29.0,92,73,51,29.84,29.61,14,4,0,0.13
2013-10-25,52.0,42.5,34.2,38.1,35.3,30.9,93,77,58,30.02,29.84,8,2,0,0.01
2013-10-26,46.6,43.3,39.0,36.5,32.8,28.9,89,67,54,29.96,29.61,11,3,0,0.00
2013-10-27,48.9,42.6,35.2,36.5,34.8,30.9,86,74,60,29.89,29.63,13,3,0,0.00
2013-10-28,51.1,41.3,27.0,39.3,31.4,23.8,91,69,49,30.23,29.86,9,2,0,0.00
2013-10-29,48.9,35.9,24.1,30.6,27.0,20.7,92,71,48,30.32,30.14,6,1,0,0.00
2013-10-30,55.9,43.3,37.4,42.3,38.3,31.6,94,83,58,30.14,29.95,5,1,0,0.07
2013-10-31,65.7,54.9,42.3,59.5,51.1,38.7,95,87,76,29.93,29.22,7,3,0,0.47
2013-11-1,64.0,58.2,48.9,58.8,49.4,42.5,93,74,55,29.51,29.01,27,7,0,0.18
2013-11-2,53.1,45.6,38.8,47.0,42.3,31.8,94,88,75,29.83,29.44,10,2,0,0.37
2013-11-3,39.2,35.5,29.5,32.3,25.2,22.5,77,66,55,30.37,29.83,7,3,0,0.00
2013-11-4,44.1,34.5,22.3,26.1,20.5,16.1,92,60,33,30.50,30.29,9,2,0,0.00
2013-11-5,60.1,47.0,34.3,37.2,30.0,20.9,63,52,40,30.31,30.16,12,3,0,0.00
2013-11-6,65.1,56.2,45.0,53.7,43.1,33.9,88,62,49,30.17,29.62,9,2,0,0.02
2013-11-7,57.4,45.0,39.4,55.1,38.5,30.6,94,78,60,29.81,29.61,12,5,0,0.36
2013-11-8,41.9,39.7,37.8,32.4,29.5,28.2,78,67,58,30.05,29.77,11,6,0,0.00
2013-11-9,48.7,42.5,34.9,41.2,31.7,27.3,81,66,54,30.05,29.60,8,2,0,0.00
2013-11-10,50.2,45.2,41.0,40.5,34.9,30.3,77,67,59,29.97,29.60,20,7,0,0.00
2013-11-11,46.6,38.1,30.9,36.5,31.1,23.3,94,76,58,29.99,29.75,11,4,0,0.37
2013-11-12,32.9,29.6,27.7,24.8,21.2,17.1,82,71,63,30.22,29.93,17,7,0,0.00
2013-11-13,38.8,31.6,21.2,26.6,20.8,13.6,75,64,55,30.25,29.91,8,4,0,0.00
2013-11-14,49.5,41.7,34.9,30.0,21.7,16.5,60,46,31,29.94,29.82,10,3,0,0.00
2013-11-15,54.1,42.9,36.7,30.4,25.3,19.8,70,51,35,29.95,29.87,4,0,0,0.00
2013-11-16,59.9,48.8,35.6,39.7,33.9,26.1,72,57,42,30.08,29.88,7,2,0,0.00
2013-11-17,61.0,55.6,51.3,53.2,48.2,39.5,90,77,64,29.87,29.19,13,7,0,0.24
2013-11-18,54.1,47.4,36.9,48.4,36.1,26.9,88,65,56,29.71,29.19,24,9,0,0.04
2013-11-19,38.3,36.1,30.7,28.3,25.7,20.7,68,65,63,30.29,29.71,17,6,0,0.00
2013-11-20,39.0,31.4,23.0,23.4,19.6,16.3,83,62,43,30.45,30.29,8,3,0,0.00
2013-11-21,48.6,39.9,31.6,36.0,25.3,15.6,84,56,44,30.31,30.10,10,3,0,0.01
2013-11-22,47.1,42.8,39.7,45.5,40.8,36.4,96,93,86,30.09,29.81,14,2,0,0.31
2013-11-23,41.5,30.8,19.6,38.0,23.4,10.1,92,74,54,30.02,29.82,23,9,0,0.00
2013-11-24,25.7,21.7,18.3,16.8,13.4,10.8,86,70,60,30.22,29.98,15,8,0,0.00
2013-11-25,37.2,29.1,19.4,20.9,14.7,10.8,77,56,38,30.22,29.94,10,2,0,0.00
2013-11-26,37.6,33.9,32.0,31.0,26.9,22.0,94,76,61,29.98,29.66,5,2,0,0.01
2013-11-27,36.0,31.6,24.3,32.7,27.3,16.7,95,84,70,29.71,29.43,18,7,0,1.41
2013-11-28,30.6,24.1,19.0,18.6,15.4,12.9,84,69,57,30.27,29.71,14,4,0,0.00
2013-11-29,31.1,22.4,9.7,21.5,14.8,5.8,91,73,56,30.58,30.27,9,2,0,0.00
2013-11-30,32.9,23.0,7.3,22.1,14.9,3.5,87,72,56,30.58,30.04,11,3,0,0.00
2013-12-1,43.7,35.3,30.0,33.4,29.1,22.1,94,79,60,30.03,29.80,5,1,0,0.15
2013-12-2,41.7,35.3,30.6,36.2,32.6,28.8,95,90,76,29.80,29.69,2,0,0,0.01
2013-12-3,42.6,32.4,25.5,33.5,28.2,24.0,95,85,64,29.85,29.74,5,1,0,0.00
2013-12-4,46.0,38.1,30.2,38.4,33.9,27.9,95,85,72,29.87,29.74,7,2,0,0.00
2013-12-5,60.6,50.7,42.6,52.3,43.8,37.5,85,77,59,29.83,29.56,11,4,0,0.00
2013-12-6,45.1,35.6,31.8,37.7,29.0,23.3,93,77,66,30.08,29.84,7,4,0,0.17
2013-12-7,33.4,29.2,25.9,25.6,19.2,15.2,82,66,50,30.39,30.07,13,6,0,0.00
2013-12-8,31.3,26.2,19.2,21.7,14.9,10.7,82,62,50,30.41,30.07,8,3,0,0.00
2013-12-9,41.4,34.3,26.8,35.2,28.3,21.2,91,78,67,30.06,29.67,14,5,0,0.07
2013-12-10,33.4,25.5,19.6,24.7,15.5,9.4,87,66,51,29.88,29.74,16,6,0,0.00
2013-12-11,28.4,23.0,18.1,19.4,12.9,9.2,84,65,53,30.09,29.87,13,6,0,0.00
2013-12-12,20.7,16.8,11.3,13.4,10.0,5.8,84,75,56,30.14,29.86,14,2,0,0.00
2013-12-13,24.3,19.7,16.5,19.4,11.7,6.8,86,71,63,30.23,29.84,23,6,0,0.00
2013-12-14,19.9,13.4,8.2,16.7,7.9,2.2,87,78,68,30.30,29.61,7,3,0,0.00
2013-12-15,24.3,21.0,16.5,22.4,16.5,10.6,93,83,64,29.65,29.43,12,3,0,0.00
2013-12-16,22.6,13.0,-3.6,16.3,7.7,-8.2,85,79,67,30.02,29.66,12,2,0,0.00
2013-12-17,28.4,17.4,-5.6,23.7,13.2,-10.4,87,83,77,30.01,29.73,9,2,0,0.00
2013-12-18,32.9,28.5,24.4,22.4,21.1,19.2,88,74,62,29.90,29.74,9,2,0,0.00
2013-12-19,44.1,34.4,23.7,31.0,25.3,16.2,84,70,53,29.88,29.72,13,2,0,0.25
2013-12-20,42.3,36.8,33.3,40.4,35.5,29.4,97,95,85,29.85,29.62,4,0,0,0.24
2013-12-21,49.8,36.0,31.6,49.3,35.4,30.6,98,97,96,29.73,29.54,9,2,0,0.80
2013-12-22,40.8,34.7,31.6,40.0,33.6,30.6,97,96,95,29.80,29.45,10,3,0,0.39
2013-12-23,39.7,34.4,27.3,37.6,31.8,23.4,96,90,80,30.10,29.78,9,4,0,0.00
2013-12-24,27.0,20.7,12.2,23.3,17.4,8.8,90,87,81,30.32,30.05,18,4,0,0.00
2013-12-25,23.5,16.1,3.6,15.2,9.8,0.6,89,76,63,30.37,30.06,7,3,0,0.00
2013-12-26,33.1,27.7,23.5,27.7,20.0,15.2,84,72,66,30.10,29.89,9,4,0,0.00
2013-12-27,33.4,26.8,21.2,26.2,20.6,13.3,94,77,68,30.12,29.92,9,2,0,0.00
2013-12-28,42.8,36.0,27.3,33.4,29.3,24.8,95,77,63,29.92,29.77,10,3,0,0.07
2013-12-29,45.9,38.6,27.9,39.1,32.7,26.1,95,80,61,29.76,29.44,16,1,0,0.00
2013-12-30,28.4,19.3,16.0,24.5,13.5,7.7,87,78,66,30.06,29.59,15,6,0,0.00
2013-12-31,27.5,18.8,14.7,19.2,10.7,4.8,79,70,60,30.06,29.78,24,6,0,0.00
2014-1-1,21.7,17.3,13.6,13.8,11.0,8.0,83,76,61,30.23,30.06,10,3,0,0.00
2014-1-2,15.1,12.0,7.3,11.1,8.1,3.2,85,84,82,30.15,29.83,15,7,0,0.00